sensor_id;sensor_type;location;lat;lon;timestamp;pressure;altitude;pressure_sealevel;temperature;humidity
6194;BME280;3130;41.564;23.280;2023-06-26T00:00:54;98437.94;;;21.08;97.90
6194;BME280;3130;41.564;23.280;2023-06-26T00:03:21;98437.59;;;21.11;97.56
6194;BME280;3130;41.564;23.280;2023-06-26T00:05:48;98444.91;;;21.16;97.53
6194;BME280;3130;41.564;23.280;2023-06-26T00:08:17;98438.19;;;21.29;97.26
6194;BME280;3130;41.564;23.280;2023-06-26T00:10:44;98435.38;;;21.31;96.75
6194;BME280;3130;41.564;23.280;2023-06-26T00:13:12;98388.38;;;21.16;96.55
6194;BME280;3130;41.564;23.280;2023-06-26T00:15:39;98440.66;;;21.61;95.29
6194;BME280;3130;41.564;23.280;2023-06-26T00:18:06;98439.31;;;21.65;95.27
6194;BME280;3130;41.564;23.280;2023-06-26T00:20:33;98437.81;;;21.70;94.38
6194;BME280;3130;41.564;23.280;2023-06-26T00:23:00;98427.84;;;21.74;94.12
6194;BME280;3130;41.564;23.280;2023-06-26T00:25:31;98433.88;;;21.74;93.48
6194;BME280;3130;41.564;23.280;2023-06-26T00:27:58;98438.47;;;21.72;93.28
6194;BME280;3130;41.564;23.280;2023-06-26T00:30:25;98432.81;;;21.53;93.02
6194;BME280;3130;41.564;23.280;2023-06-26T00:32:52;98435.19;;;21.40;93.17
6194;BME280;3130;41.564;23.280;2023-06-26T00:35:19;98438.31;;;21.35;93.89
6194;BME280;3130;41.564;23.280;2023-06-26T00:37:46;98436.22;;;21.31;94.12
6194;BME280;3130;41.564;23.280;2023-06-26T00:40:13;98442.44;;;21.22;94.36
6194;BME280;3130;41.564;23.280;2023-06-26T00:42:42;98445.81;;;21.31;94.20
6194;BME280;3130;41.564;23.280;2023-06-26T00:45:09;98441.03;;;21.42;93.68
6194;BME280;3130;41.564;23.280;2023-06-26T00:47:36;98439.59;;;21.39;93.43
6194;BME280;3130;41.564;23.280;2023-06-26T00:50:04;98443.47;;;21.43;93.50
6194;BME280;3130;41.564;23.280;2023-06-26T00:52:32;98373.84;;;21.14;93.56
6194;BME280;3130;41.564;23.280;2023-06-26T00:54:59;98440.84;;;21.59;93.34
6194;BME280;3130;41.564;23.280;2023-06-26T00:57:26;98443.72;;;21.64;92.63
6194;BME280;3130;41.564;23.280;2023-06-26T00:59:55;98445.47;;;21.72;92.46
6194;BME280;3130;41.564;23.280;2023-06-26T01:02:22;98446.63;;;21.69;92.34
6194;BME280;3130;41.564;23.280;2023-06-26T01:04:49;98445.09;;;21.44;92.39
6194;BME280;3130;41.564;23.280;2023-06-26T01:07:19;98411.59;;;20.95;91.96
6194;BME280;3130;41.564;23.280;2023-06-26T01:09:48;98442.56;;;20.90;92.75
6194;BME280;3130;41.564;23.280;2023-06-26T01:12:15;98449.72;;;20.88;91.96
6194;BME280;3130;41.564;23.280;2023-06-26T01:14:42;98444.00;;;20.77;91.97
6194;BME280;3130;41.564;23.280;2023-06-26T01:17:11;98399.94;;;20.51;91.51
6194;BME280;3130;41.564;23.280;2023-06-26T01:19:41;98426.81;;;20.52;91.97
6194;BME280;3130;41.564;23.280;2023-06-26T01:22:14;98444.06;;;20.69;92.49
6194;BME280;3130;41.564;23.280;2023-06-26T01:24:52;98412.66;;;20.30;93.08
6194;BME280;3130;41.564;23.280;2023-06-26T01:27:25;98366.97;;;20.20;93.19
6194;BME280;3130;41.564;23.280;2023-06-26T01:29:53;98447.78;;;20.82;93.38
6194;BME280;3130;41.564;23.280;2023-06-26T01:32:22;98426.13;;;20.82;92.95
6194;BME280;3130;41.564;23.280;2023-06-26T01:34:51;98422.03;;;20.87;91.50
6194;BME280;3130;41.564;23.280;2023-06-26T01:37:18;98335.03;;;20.34;90.34
6194;BME280;3130;41.564;23.280;2023-06-26T01:39:45;98436.38;;;20.67;91.45
6194;BME280;3130;41.564;23.280;2023-06-26T01:42:12;98439.03;;;20.43;92.23
6194;BME280;3130;41.564;23.280;2023-06-26T01:44:44;98441.13;;;20.56;92.41
6194;BME280;3130;41.564;23.280;2023-06-26T01:47:16;98427.63;;;20.60;92.71
6194;BME280;3130;41.564;23.280;2023-06-26T01:49:47;98393.13;;;20.42;92.89
6194;BME280;3130;41.564;23.280;2023-06-26T01:52:20;98398.13;;;20.60;92.96
6194;BME280;3130;41.564;23.280;2023-06-26T01:54:54;98401.38;;;20.62;92.96
6194;BME280;3130;41.564;23.280;2023-06-26T01:57:22;98426.78;;;20.84;92.78
6194;BME280;3130;41.564;23.280;2023-06-26T01:59:54;98437.72;;;20.79;92.43
6194;BME280;3130;41.564;23.280;2023-06-26T02:02:23;98417.66;;;20.72;92.26
6194;BME280;3130;41.564;23.280;2023-06-26T02:04:51;98432.97;;;20.83;92.15
6194;BME280;3130;41.564;23.280;2023-06-26T02:07:18;98381.22;;;20.48;91.91
6194;BME280;3130;41.564;23.280;2023-06-26T02:09:45;98421.41;;;20.69;92.20
6194;BME280;3130;41.564;23.280;2023-06-26T02:12:12;98420.75;;;20.67;91.82
6194;BME280;3130;41.564;23.280;2023-06-26T02:14:39;98408.22;;;20.71;91.03
6194;BME280;3130;41.564;23.280;2023-06-26T02:17:08;98399.59;;;20.62;90.84
6194;BME280;3130;41.564;23.280;2023-06-26T02:19:35;98409.53;;;20.67;90.65
6194;BME280;3130;41.564;23.280;2023-06-26T02:22:02;98411.00;;;20.53;91.30
6194;BME280;3130;41.564;23.280;2023-06-26T02:24:29;98414.13;;;20.49;91.95
6194;BME280;3130;41.564;23.280;2023-06-26T02:26:56;98414.25;;;20.47;92.03
6194;BME280;3130;41.564;23.280;2023-06-26T02:29:24;98365.81;;;20.15;91.51
6194;BME280;3130;41.564;23.280;2023-06-26T02:31:51;98401.59;;;20.44;91.78
6194;BME280;3130;41.564;23.280;2023-06-26T02:34:19;98411.19;;;20.52;91.62
6194;BME280;3130;41.564;23.280;2023-06-26T02:36:46;98358.94;;;20.29;91.20
6194;BME280;3130;41.564;23.280;2023-06-26T02:39:13;98410.03;;;20.62;91.63
6194;BME280;3130;41.564;23.280;2023-06-26T02:41:40;98403.00;;;20.79;91.07
6194;BME280;3130;41.564;23.280;2023-06-26T02:44:09;98411.75;;;20.78;90.22
6194;BME280;3130;41.564;23.280;2023-06-26T02:46:37;98407.88;;;20.82;90.20
6194;BME280;3130;41.564;23.280;2023-06-26T02:49:04;98404.13;;;20.76;89.61
6194;BME280;3130;41.564;23.280;2023-06-26T02:51:33;98414.06;;;20.89;89.25
6194;BME280;3130;41.564;23.280;2023-06-26T02:54:00;98413.69;;;21.00;89.14
6194;BME280;3130;41.564;23.280;2023-06-26T02:56:27;98399.34;;;21.04;88.48
6194;BME280;3130;41.564;23.280;2023-06-26T02:58:55;98407.63;;;21.07;88.64
6194;BME280;3130;41.564;23.280;2023-06-26T03:01:22;98412.06;;;20.91;89.49
6194;BME280;3130;41.564;23.280;2023-06-26T03:03:49;98414.84;;;20.89;90.35
6194;BME280;3130;41.564;23.280;2023-06-26T03:06:16;98413.38;;;20.95;90.52
6194;BME280;3130;41.564;23.280;2023-06-26T03:08:44;98420.72;;;20.91;91.19
6194;BME280;3130;41.564;23.280;2023-06-26T03:11:11;98415.50;;;20.99;91.04
6194;BME280;3130;41.564;23.280;2023-06-26T03:13:38;98417.09;;;21.00;91.29
6194;BME280;3130;41.564;23.280;2023-06-26T03:16:05;98417.09;;;21.00;91.49
6194;BME280;3130;41.564;23.280;2023-06-26T03:18:32;98416.59;;;21.05;91.11
6194;BME280;3130;41.564;23.280;2023-06-26T03:20:59;98434.00;;;21.12;90.71
6194;BME280;3130;41.564;23.280;2023-06-26T03:23:26;98354.28;;;20.71;90.92
6194;BME280;3130;41.564;23.280;2023-06-26T03:25:55;98426.00;;;21.22;90.87
6194;BME280;3130;41.564;23.280;2023-06-26T03:28:22;98427.63;;;21.23;91.10
6194;BME280;3130;41.564;23.280;2023-06-26T03:30:49;98414.25;;;21.18;91.93
6194;BME280;3130;41.564;23.280;2023-06-26T03:33:16;98421.91;;;21.19;92.05
6194;BME280;3130;41.564;23.280;2023-06-26T03:35:43;98415.84;;;21.27;92.04
6194;BME280;3130;41.564;23.280;2023-06-26T03:38:10;98420.72;;;21.30;92.01
6194;BME280;3130;41.564;23.280;2023-06-26T03:40:37;98418.88;;;21.38;91.97
6194;BME280;3130;41.564;23.280;2023-06-26T03:43:06;98417.09;;;21.38;92.09
6194;BME280;3130;41.564;23.280;2023-06-26T03:45:33;98424.38;;;21.51;91.77
6194;BME280;3130;41.564;23.280;2023-06-26T03:48:00;98425.00;;;21.53;91.82
6194;BME280;3130;41.564;23.280;2023-06-26T03:50:27;98417.16;;;21.61;91.92
6194;BME280;3130;41.564;23.280;2023-06-26T03:52:54;98420.72;;;21.68;91.60
6194;BME280;3130;41.564;23.280;2023-06-26T03:55:21;98423.22;;;21.84;90.56
6194;BME280;3130;41.564;23.280;2023-06-26T03:57:49;98417.38;;;21.96;90.18
6194;BME280;3130;41.564;23.280;2023-06-26T04:00:18;98393.13;;;21.88;88.68
6194;BME280;3130;41.564;23.280;2023-06-26T04:02:45;98415.56;;;22.05;88.48
6194;BME280;3130;41.564;23.280;2023-06-26T04:05:12;98433.63;;;22.29;88.00
6194;BME280;3130;41.564;23.280;2023-06-26T04:07:40;98429.47;;;22.42;87.64
6194;BME280;3130;41.564;23.280;2023-06-26T04:10:08;98410.34;;;22.41;87.44
6194;BME280;3130;41.564;23.280;2023-06-26T04:12:35;98416.94;;;22.52;87.41
6194;BME280;3130;41.564;23.280;2023-06-26T04:17:30;98430.75;;;22.75;87.15
6194;BME280;3130;41.564;23.280;2023-06-26T04:19:57;98430.41;;;22.78;86.85
6194;BME280;3130;41.564;23.280;2023-06-26T04:22:24;98432.56;;;22.74;86.67
6194;BME280;3130;41.564;23.280;2023-06-26T04:24:52;98433.81;;;22.78;86.98
6194;BME280;3130;41.564;23.280;2023-06-26T04:27:19;98406.31;;;22.68;86.89
6194;BME280;3130;41.564;23.280;2023-06-26T04:29:46;98420.59;;;22.80;86.79
6194;BME280;3130;41.564;23.280;2023-06-26T04:32:13;98439.59;;;23.03;85.17
6194;BME280;3130;41.564;23.280;2023-06-26T04:34:41;98370.81;;;22.59;84.65
6194;BME280;3130;41.564;23.280;2023-06-26T04:37:09;98425.53;;;22.89;84.94
6194;BME280;3130;41.564;23.280;2023-06-26T04:39:37;98376.75;;;22.67;85.38
6194;BME280;3130;41.564;23.280;2023-06-26T04:42:06;98401.03;;;22.90;85.15
6194;BME280;3130;41.564;23.280;2023-06-26T04:44:33;98434.88;;;23.06;84.99
6194;BME280;3130;41.564;23.280;2023-06-26T04:47:00;98440.81;;;23.15;85.17
6194;BME280;3130;41.564;23.280;2023-06-26T04:49:27;98347.53;;;22.49;85.12
6194;BME280;3130;41.564;23.280;2023-06-26T04:51:56;98435.22;;;23.18;84.96
6194;BME280;3130;41.564;23.280;2023-06-26T04:54:26;98437.44;;;23.21;85.01
6194;BME280;3130;41.564;23.280;2023-06-26T04:56:53;98435.66;;;23.21;84.82
6194;BME280;3130;41.564;23.280;2023-06-26T04:59:20;98432.84;;;23.23;84.72
6194;BME280;3130;41.564;23.280;2023-06-26T05:01:47;98435.47;;;23.23;84.53
6194;BME280;3130;41.564;23.280;2023-06-26T05:04:14;98404.97;;;23.01;83.66
6194;BME280;3130;41.564;23.280;2023-06-26T05:06:42;98438.88;;;23.38;82.50
6194;BME280;3130;41.564;23.280;2023-06-26T05:09:10;98432.56;;;23.32;83.35
6194;BME280;3130;41.564;23.280;2023-06-26T05:11:37;98448.47;;;23.31;83.20
6194;BME280;3130;41.564;23.280;2023-06-26T05:14:05;98433.13;;;23.28;84.11
6194;BME280;3130;41.564;23.280;2023-06-26T05:16:33;98398.31;;;23.13;83.45
6194;BME280;3130;41.564;23.280;2023-06-26T05:19:00;98450.56;;;23.56;83.30
6194;BME280;3130;41.564;23.280;2023-06-26T05:21:28;98444.16;;;23.58;82.82
6194;BME280;3130;41.564;23.280;2023-06-26T05:23:56;98440.69;;;23.72;82.42
6194;BME280;3130;41.564;23.280;2023-06-26T05:26:26;98448.34;;;23.88;82.26
6194;BME280;3130;41.564;23.280;2023-06-26T05:28:54;98443.97;;;23.95;81.75
6194;BME280;3130;41.564;23.280;2023-06-26T05:31:21;98420.59;;;23.94;81.16
6194;BME280;3130;41.564;23.280;2023-06-26T05:33:49;98443.28;;;24.08;79.76
6194;BME280;3130;41.564;23.280;2023-06-26T05:36:18;98437.75;;;24.17;79.64
6194;BME280;3130;41.564;23.280;2023-06-26T05:38:47;98443.28;;;24.08;78.42
6194;BME280;3130;41.564;23.280;2023-06-26T05:41:16;98437.69;;;24.11;78.36
6194;BME280;3130;41.564;23.280;2023-06-26T05:43:44;98428.63;;;24.13;77.51
6194;BME280;3130;41.564;23.280;2023-06-26T05:46:12;98440.63;;;24.22;76.49
6194;BME280;3130;41.564;23.280;2023-06-26T05:48:39;98446.72;;;24.29;76.66
6194;BME280;3130;41.564;23.280;2023-06-26T05:51:07;98443.75;;;24.39;75.54
6194;BME280;3130;41.564;23.280;2023-06-26T05:53:34;98377.16;;;24.06;75.40
6194;BME280;3130;41.564;23.280;2023-06-26T05:56:02;98453.28;;;24.67;75.19
6194;BME280;3130;41.564;23.280;2023-06-26T05:58:30;98438.59;;;24.72;73.52
6194;BME280;3130;41.564;23.280;2023-06-26T06:00:58;98447.16;;;24.87;73.24
6194;BME280;3130;41.564;23.280;2023-06-26T06:03:25;98337.16;;;24.18;71.98
6194;BME280;3130;41.564;23.280;2023-06-26T06:05:52;98441.72;;;24.82;70.48
6194;BME280;3130;41.564;23.280;2023-06-26T06:08:19;98458.97;;;25.04;70.63
6194;BME280;3130;41.564;23.280;2023-06-26T06:10:47;98456.97;;;25.06;69.53
6194;BME280;3130;41.564;23.280;2023-06-26T06:13:14;98434.34;;;25.05;69.59
6194;BME280;3130;41.564;23.280;2023-06-26T06:15:41;98463.75;;;25.22;68.46
6194;BME280;3130;41.564;23.280;2023-06-26T06:18:09;98469.44;;;25.32;68.43
6194;BME280;3130;41.564;23.280;2023-06-26T06:20:36;98452.28;;;25.29;67.60
6194;BME280;3130;41.564;23.280;2023-06-26T06:23:03;98459.22;;;25.50;67.67
6194;BME280;3130;41.564;23.280;2023-06-26T06:25:31;98460.06;;;25.56;67.13
6194;BME280;3130;41.564;23.280;2023-06-26T06:27:58;98438.84;;;25.52;66.21
6194;BME280;3130;41.564;23.280;2023-06-26T06:30:25;98438.03;;;25.51;66.19
6194;BME280;3130;41.564;23.280;2023-06-26T06:32:53;98466.00;;;25.78;65.96
6194;BME280;3130;41.564;23.280;2023-06-26T06:35:22;98462.22;;;25.87;65.42
6194;BME280;3130;41.564;23.280;2023-06-26T06:37:49;98459.63;;;25.93;64.77
6194;BME280;3130;41.564;23.280;2023-06-26T06:40:16;98443.25;;;25.98;64.64
6194;BME280;3130;41.564;23.280;2023-06-26T06:42:43;98454.38;;;26.06;63.77
6194;BME280;3130;41.564;23.280;2023-06-26T06:45:10;98435.97;;;26.06;63.55
6194;BME280;3130;41.564;23.280;2023-06-26T06:47:37;98403.41;;;25.88;62.08
6194;BME280;3130;41.564;23.280;2023-06-26T06:50:05;98448.13;;;26.27;62.75
6194;BME280;3130;41.564;23.280;2023-06-26T06:52:37;98458.28;;;26.43;62.65
6194;BME280;3130;41.564;23.280;2023-06-26T06:55:06;98439.44;;;26.39;60.62
6194;BME280;3130;41.564;23.280;2023-06-26T06:57:35;98446.53;;;26.45;61.40
6194;BME280;3130;41.564;23.280;2023-06-26T07:00:04;98446.13;;;26.61;60.25
6194;BME280;3130;41.564;23.280;2023-06-26T07:02:34;98432.97;;;26.61;59.53
6194;BME280;3130;41.564;23.280;2023-06-26T07:05:01;98461.09;;;26.73;58.71
6194;BME280;3130;41.564;23.280;2023-06-26T07:07:31;98373.91;;;26.25;59.91
6194;BME280;3130;41.564;23.280;2023-06-26T07:10:02;98413.97;;;26.33;58.85
6194;BME280;3130;41.564;23.280;2023-06-26T07:12:30;98459.09;;;26.69;57.89
6194;BME280;3130;41.564;23.280;2023-06-26T07:14:57;98458.44;;;26.93;58.46
6194;BME280;3130;41.564;23.280;2023-06-26T07:17:24;98439.81;;;26.94;58.33
6194;BME280;3130;41.564;23.280;2023-06-26T07:19:51;98439.59;;;27.09;57.53
6194;BME280;3130;41.564;23.280;2023-06-26T07:22:18;98380.53;;;26.79;57.19
6194;BME280;3130;41.564;23.280;2023-06-26T07:24:46;98464.16;;;27.53;57.09
6194;BME280;3130;41.564;23.280;2023-06-26T07:27:16;98463.13;;;27.67;54.56
6194;BME280;3130;41.564;23.280;2023-06-26T07:29:43;98460.00;;;27.76;54.06
6194;BME280;3130;41.564;23.280;2023-06-26T07:32:10;98451.72;;;27.73;55.60
6194;BME280;3130;41.564;23.280;2023-06-26T07:34:37;98463.53;;;28.01;53.82
6194;BME280;3130;41.564;23.280;2023-06-26T07:37:05;98455.75;;;28.13;52.65
6194;BME280;3130;41.564;23.280;2023-06-26T07:39:32;98462.75;;;28.32;51.97
6194;BME280;3130;41.564;23.280;2023-06-26T07:41:59;98453.63;;;28.52;51.27
6194;BME280;3130;41.564;23.280;2023-06-26T07:44:27;98471.63;;;28.86;50.24
6194;BME280;3130;41.564;23.280;2023-06-26T07:46:54;98469.25;;;29.02;47.83
6194;BME280;3130;41.564;23.280;2023-06-26T07:49:21;98455.59;;;28.87;48.80
6194;BME280;3130;41.564;23.280;2023-06-26T07:51:48;98467.63;;;29.01;48.20
6194;BME280;3130;41.564;23.280;2023-06-26T07:54:15;98423.50;;;28.84;48.29
6194;BME280;3130;41.564;23.280;2023-06-26T07:56:55;98473.13;;;29.42;48.65
6194;BME280;3130;41.564;23.280;2023-06-26T07:59:23;98457.59;;;29.93;45.42
6194;BME280;3130;41.564;23.280;2023-06-26T08:01:53;98487.09;;;30.49;43.51
6194;BME280;3130;41.564;23.280;2023-06-26T08:04:22;98408.69;;;31.67;39.37
6194;BME280;3130;41.564;23.280;2023-06-26T08:06:51;98483.06;;;33.48;35.68
6194;BME280;3130;41.564;23.280;2023-06-26T08:09:20;98471.47;;;33.37;35.58
6194;BME280;3130;41.564;23.280;2023-06-26T08:11:48;98467.41;;;33.30;35.95
6194;BME280;3130;41.564;23.280;2023-06-26T08:14:15;98460.72;;;31.57;37.72
6194;BME280;3130;41.564;23.280;2023-06-26T08:16:43;98476.59;;;31.17;39.16
6194;BME280;3130;41.564;23.280;2023-06-26T08:19:12;98473.94;;;30.94;40.69
6194;BME280;3130;41.564;23.280;2023-06-26T08:21:40;98459.28;;;30.58;40.75
6194;BME280;3130;41.564;23.280;2023-06-26T08:24:07;98450.00;;;30.26;42.43
6194;BME280;3130;41.564;23.280;2023-06-26T08:26:35;98451.59;;;30.15;43.24
6194;BME280;3130;41.564;23.280;2023-06-26T08:29:02;98456.94;;;29.97;42.34
6194;BME280;3130;41.564;23.280;2023-06-26T08:31:33;98449.72;;;30.04;42.80
6194;BME280;3130;41.564;23.280;2023-06-26T08:34:01;98450.41;;;29.82;42.99
6194;BME280;3130;41.564;23.280;2023-06-26T08:36:30;98440.69;;;29.94;43.43
6194;BME280;3130;41.564;23.280;2023-06-26T08:38:57;98410.47;;;29.07;44.94
6194;BME280;3130;41.564;23.280;2023-06-26T08:41:24;98438.34;;;29.03;44.52
6194;BME280;3130;41.564;23.280;2023-06-26T08:43:52;98426.91;;;28.91;45.51
6194;BME280;3130;41.564;23.280;2023-06-26T08:46:19;98438.81;;;28.75;45.43
6194;BME280;3130;41.564;23.280;2023-06-26T08:48:49;98394.28;;;28.61;45.92
6194;BME280;3130;41.564;23.280;2023-06-26T08:51:24;98419.94;;;28.96;46.94
6194;BME280;3130;41.564;23.280;2023-06-26T08:53:56;98428.72;;;29.26;45.22
6194;BME280;3130;41.564;23.280;2023-06-26T08:56:25;98420.97;;;29.49;44.98
6194;BME280;3130;41.564;23.280;2023-06-26T08:58:54;98417.09;;;29.52;44.61
6194;BME280;3130;41.564;23.280;2023-06-26T09:01:21;98415.06;;;29.65;44.14
6194;BME280;3130;41.564;23.280;2023-06-26T09:03:50;98428.38;;;29.88;43.05
6194;BME280;3130;41.564;23.280;2023-06-26T09:06:17;98428.34;;;30.06;42.45
6194;BME280;3130;41.564;23.280;2023-06-26T09:08:45;98432.72;;;30.12;43.13
6194;BME280;3130;41.564;23.280;2023-06-26T09:11:13;98430.22;;;30.28;42.54
6194;BME280;3130;41.564;23.280;2023-06-26T09:13:41;98375.72;;;29.86;42.92
6194;BME280;3130;41.564;23.280;2023-06-26T09:16:09;98428.84;;;30.26;43.51
6194;BME280;3130;41.564;23.280;2023-06-26T09:18:36;98423.19;;;30.34;42.73
6194;BME280;3130;41.564;23.280;2023-06-26T09:21:06;98407.78;;;30.19;40.50
6194;BME280;3130;41.564;23.280;2023-06-26T09:23:34;98317.91;;;29.61;42.30
6194;BME280;3130;41.564;23.280;2023-06-26T09:26:02;98405.22;;;30.24;41.34
6194;BME280;3130;41.564;23.280;2023-06-26T09:28:32;98421.81;;;30.31;41.79
6194;BME280;3130;41.564;23.280;2023-06-26T09:31:02;98409.75;;;30.35;40.85
6194;BME280;3130;41.564;23.280;2023-06-26T09:33:34;98409.88;;;30.29;40.87
6194;BME280;3130;41.564;23.280;2023-06-26T09:36:05;98425.16;;;30.27;39.78
6194;BME280;3130;41.564;23.280;2023-06-26T09:38:34;98407.78;;;30.42;39.77
6194;BME280;3130;41.564;23.280;2023-06-26T09:41:01;98416.19;;;30.28;40.06
6194;BME280;3130;41.564;23.280;2023-06-26T09:43:32;98414.09;;;30.41;39.24
6194;BME280;3130;41.564;23.280;2023-06-26T09:46:00;98407.03;;;30.53;40.39
6194;BME280;3130;41.564;23.280;2023-06-26T09:48:27;98385.59;;;30.55;39.06
6194;BME280;3130;41.564;23.280;2023-06-26T09:50:55;98414.03;;;30.82;38.71
6194;BME280;3130;41.564;23.280;2023-06-26T09:53:22;98398.25;;;30.87;38.40
6194;BME280;3130;41.564;23.280;2023-06-26T09:55:50;98400.91;;;30.76;37.63
6194;BME280;3130;41.564;23.280;2023-06-26T09:58:17;98390.91;;;30.78;38.58
6194;BME280;3130;41.564;23.280;2023-06-26T10:00:46;98390.19;;;30.59;38.76
6194;BME280;3130;41.564;23.280;2023-06-26T10:03:13;98364.19;;;30.68;37.94
6194;BME280;3130;41.564;23.280;2023-06-26T10:05:40;98392.19;;;30.52;38.53
6194;BME280;3130;41.564;23.280;2023-06-26T10:08:08;98391.03;;;30.60;38.11
6194;BME280;3130;41.564;23.280;2023-06-26T10:10:37;98365.34;;;30.37;38.91
6194;BME280;3130;41.564;23.280;2023-06-26T10:13:11;98369.97;;;30.53;38.32
6194;BME280;3130;41.564;23.280;2023-06-26T10:15:45;98378.69;;;30.65;37.81
6194;BME280;3130;41.564;23.280;2023-06-26T10:18:13;98376.06;;;30.54;38.08
6194;BME280;3130;41.564;23.280;2023-06-26T10:20:46;98374.44;;;30.76;37.99
6194;BME280;3130;41.564;23.280;2023-06-26T10:23:14;98365.88;;;30.96;37.51
6194;BME280;3130;41.564;23.280;2023-06-26T10:25:44;98243.94;;;29.83;37.41
6194;BME280;3130;41.564;23.280;2023-06-26T10:28:12;98368.56;;;30.74;37.79
6194;BME280;3130;41.564;23.280;2023-06-26T10:30:43;98310.03;;;30.75;37.39
6194;BME280;3130;41.564;23.280;2023-06-26T10:33:13;98349.25;;;31.24;37.49
6194;BME280;3130;41.564;23.280;2023-06-26T10:35:43;98291.34;;;31.04;36.50
6194;BME280;3130;41.564;23.280;2023-06-26T10:38:48;98327.31;;;31.28;36.34
6194;BME280;3130;41.564;23.280;2023-06-26T10:41:20;98363.66;;;31.44;37.45
6194;BME280;3130;41.564;23.280;2023-06-26T10:43:49;98362.22;;;31.65;37.38
6194;BME280;3130;41.564;23.280;2023-06-26T10:46:18;98356.22;;;31.69;35.61
6194;BME280;3130;41.564;23.280;2023-06-26T10:49:00;98355.56;;;31.51;35.29
6194;BME280;3130;41.564;23.280;2023-06-26T10:51:28;98344.94;;;31.62;37.09
6194;BME280;3130;41.564;23.280;2023-06-26T10:53:56;98351.38;;;31.66;36.95
6194;BME280;3130;41.564;23.280;2023-06-26T10:56:41;98347.06;;;31.77;36.96
6194;BME280;3130;41.564;23.280;2023-06-26T10:59:13;98358.16;;;31.90;34.16
6194;BME280;3130;41.564;23.280;2023-06-26T11:01:41;98353.44;;;32.08;34.25
6194;BME280;3130;41.564;23.280;2023-06-26T11:04:10;98314.41;;;32.09;34.54
6194;BME280;3130;41.564;23.280;2023-06-26T11:06:38;98307.09;;;31.99;34.59
6194;BME280;3130;41.564;23.280;2023-06-26T11:09:10;98258.47;;;31.78;35.13
6194;BME280;3130;41.564;23.280;2023-06-26T11:12:08;98341.28;;;32.45;34.32
6194;BME280;3130;41.564;23.280;2023-06-26T11:14:35;98321.34;;;32.10;35.07
6194;BME280;3130;41.564;23.280;2023-06-26T11:17:03;98321.50;;;32.03;35.37
6194;BME280;3130;41.564;23.280;2023-06-26T11:19:32;98334.84;;;31.92;34.41
6194;BME280;3130;41.564;23.280;2023-06-26T11:22:03;98334.03;;;31.47;35.54
6194;BME280;3130;41.564;23.280;2023-06-26T11:24:31;98325.34;;;31.52;36.62
6194;BME280;3130;41.564;23.280;2023-06-26T11:27:02;98332.91;;;31.71;35.00
6194;BME280;3130;41.564;23.280;2023-06-26T11:29:32;98332.41;;;31.58;34.88
6194;BME280;3130;41.564;23.280;2023-06-26T11:32:02;98344.38;;;31.60;35.22
6194;BME280;3130;41.564;23.280;2023-06-26T11:34:33;98346.44;;;31.86;35.18
6194;BME280;3130;41.564;23.280;2023-06-26T11:37:00;98315.22;;;31.93;34.42
6194;BME280;3130;41.564;23.280;2023-06-26T11:39:30;98341.91;;;31.70;35.68
6194;BME280;3130;41.564;23.280;2023-06-26T11:41:59;98323.97;;;31.61;35.31
6194;BME280;3130;41.564;23.280;2023-06-26T11:44:29;98319.84;;;31.53;36.49
6194;BME280;3130;41.564;23.280;2023-06-26T11:46:57;98322.72;;;31.52;36.53
6194;BME280;3130;41.564;23.280;2023-06-26T11:49:25;98338.16;;;31.55;37.05
6194;BME280;3130;41.564;23.280;2023-06-26T11:51:54;98297.47;;;31.49;36.58
6194;BME280;3130;41.564;23.280;2023-06-26T11:54:25;98329.94;;;31.56;34.82
6194;BME280;3130;41.564;23.280;2023-06-26T11:56:54;98312.97;;;31.85;35.87
6194;BME280;3130;41.564;23.280;2023-06-26T11:59:23;98319.50;;;31.78;36.91
6194;BME280;3130;41.564;23.280;2023-06-26T12:01:51;98312.81;;;31.92;35.86
6194;BME280;3130;41.564;23.280;2023-06-26T12:04:19;98315.00;;;31.94;35.96
6194;BME280;3130;41.564;23.280;2023-06-26T12:06:48;98318.59;;;31.89;37.00
6194;BME280;3130;41.564;23.280;2023-06-26T12:09:19;98322.84;;;31.73;35.84
6194;BME280;3130;41.564;23.280;2023-06-26T12:11:48;98314.81;;;31.85;35.87
6194;BME280;3130;41.564;23.280;2023-06-26T12:14:20;98326.19;;;31.96;38.61
6194;BME280;3130;41.564;23.280;2023-06-26T12:16:49;98321.09;;;31.95;39.74
6194;BME280;3130;41.564;23.280;2023-06-26T12:19:16;98328.72;;;31.75;38.54
6194;BME280;3130;41.564;23.280;2023-06-26T12:21:50;98322.63;;;31.75;40.00
6194;BME280;3130;41.564;23.280;2023-06-26T12:24:20;98312.31;;;31.06;40.42
6194;BME280;3130;41.564;23.280;2023-06-26T12:26:50;98249.69;;;30.77;41.23
6194;BME280;3130;41.564;23.280;2023-06-26T12:29:20;98313.13;;;31.34;40.13
6194;BME280;3130;41.564;23.280;2023-06-26T12:31:50;98311.97;;;31.58;39.98
6194;BME280;3130;41.564;23.280;2023-06-26T12:34:19;98297.53;;;31.38;39.88
6194;BME280;3130;41.564;23.280;2023-06-26T12:36:48;98262.25;;;31.37;40.90
6194;BME280;3130;41.564;23.280;2023-06-26T12:39:17;98321.81;;;31.46;43.13
6194;BME280;3130;41.564;23.280;2023-06-26T12:41:46;98308.28;;;31.31;42.97
6194;BME280;3130;41.564;23.280;2023-06-26T12:44:21;98332.78;;;31.38;43.19
6194;BME280;3130;41.564;23.280;2023-06-26T12:46:49;98327.00;;;31.25;44.42
6194;BME280;3130;41.564;23.280;2023-06-26T12:49:20;98336.03;;;31.12;46.16
6194;BME280;3130;41.564;23.280;2023-06-26T12:51:48;98340.72;;;30.71;49.08
6194;BME280;3130;41.564;23.280;2023-06-26T12:54:33;98328.72;;;30.11;50.86
6194;BME280;3130;41.564;23.280;2023-06-26T12:57:01;98276.19;;;29.63;52.13
6194;BME280;3130;41.564;23.280;2023-06-26T12:59:29;98349.38;;;29.91;54.25
6194;BME280;3130;41.564;23.280;2023-06-26T13:01:56;98346.59;;;29.75;55.37
6194;BME280;3130;41.564;23.280;2023-06-26T13:04:24;98324.34;;;29.53;55.36
6194;BME280;3130;41.564;23.280;2023-06-26T13:06:51;98328.56;;;29.25;56.52
6194;BME280;3130;41.564;23.280;2023-06-26T13:09:20;98338.88;;;29.15;57.70
6194;BME280;3130;41.564;23.280;2023-06-26T13:11:47;98344.53;;;29.00;58.28
6194;BME280;3130;41.564;23.280;2023-06-26T13:14:15;98363.28;;;29.10;58.41
6194;BME280;3130;41.564;23.280;2023-06-26T13:16:43;98262.34;;;28.19;58.53
6194;BME280;3130;41.564;23.280;2023-06-26T13:19:10;98314.72;;;28.58;58.46